KLUF/LUF METAR and TAF weather

Enter ICAO airport designator
Station Type Date Time Source
KLUF METAR 2022/09/26 09:58 UTC NOAA

KLUF 260958Z 00000KT 10SM CLR 25/11 A2987 RMK SLP099 $


Station Type Date Time Source
KLUF Decoded METAR 2022/09/26 09:58 UTC NOAA

Luke Air Force Base / Phoenix, AZ, United States (KLUF) 33-32N 112-23W 332M
Sep 26, 2022 - 05:58 AM EDT / 2022.09.26 0958 UTC
Wind: Calm:0
Visibility: 10 mile(s):0
Sky conditions: clear
Temperature: 77 F (25 C)
Dew Point: 51 F (11 C)
Relative Humidity: 41%
Pressure (altimeter): 29.87 in. Hg (1011 hPa)
ob: KLUF 260958Z 00000KT 10SM CLR 25/11 A2987 RMK SLP099
cycle: 10

Station Type Date Time Source
KLUF TAF 2022/09/24 15:57 UTC NOAA

TAF TAF KLUF 241500Z 2415/2521 VRB06KT 9999 FEW150 FEW250 QNH2984INS TX38/2423Z TN23/2513Z LAST NO
AMDS AFT 2418 NEXT 2612

Example: see airport list